Terminal Aerodrome Forecast
Issued by NWS Sioux Falls, SD

Home | Current Version | Previous Version | Text Only | Print | Product List | Glossary Off
Versions: 1 2 3 4 5 6 7 8 9 10 11 12 13 14 15 16 17

000
FTUS43 KFSD 291138
TAFFSD
TAF
KFSD 291138Z 2912/3012 VRB04KT 6SM -SHRA BR FEW006 BKN090
      TEMPO 2912/2914 4SM BR
     FM291500 01008KT P6SM BKN040 OVC100
     FM291630 01015G24KT 6SM SHRA BKN020
      TEMPO 2917/2920 4SM SHRA OVC015
     FM292100 01018G26KT P6SM OVC015
     FM300000 01013KT P6SM SCT030 BKN200
     FM300800 36008KT P6SM SCT200=

USA.gov is the U.S. government's official web portal to all federal, state and local government web resources and services.